createdAt,value
2022-09-06T00:00:21.085Z,0.00
2022-09-06T00:01:21.094Z,0.00
2022-09-06T00:02:24.315Z,0.00
2022-09-06T00:03:21.050Z,0.00
2022-09-06T00:04:21.084Z,0.00
2022-09-06T00:05:21.034Z,0.00
2022-09-06T00:06:21.017Z,0.00
2022-09-06T00:07:21.167Z,0.00
2022-09-06T00:08:21.063Z,0.00
2022-09-06T00:09:20.986Z,0.00
2022-09-06T00:10:20.973Z,0.00
2022-09-06T00:11:21.905Z,0.00
2022-09-06T00:12:20.998Z,0.00
2022-09-06T00:13:20.938Z,0.00
2022-09-06T00:14:20.933Z,0.00
2022-09-06T00:15:20.919Z,0.00
2022-09-06T00:16:21.018Z,0.00
2022-09-06T00:17:20.918Z,0.00
2022-09-06T00:18:20.976Z,0.00
2022-09-06T00:19:20.878Z,0.00
2022-09-06T00:20:20.861Z,0.00
2022-09-06T00:21:20.851Z,0.00
2022-09-06T00:22:20.861Z,0.00
2022-09-06T00:23:20.830Z,0.00
2022-09-06T00:24:20.851Z,0.00
2022-09-06T00:25:20.816Z,0.00
2022-09-06T00:26:21.712Z,0.00
2022-09-06T00:27:20.831Z,0.00
2022-09-06T00:28:20.777Z,0.00
2022-09-06T00:29:20.764Z,0.00
2022-09-06T00:30:21.811Z,0.00
2022-09-06T00:31:20.815Z,0.00
2022-09-06T00:32:20.733Z,0.00
2022-09-06T00:33:20.749Z,0.00
2022-09-06T00:34:20.712Z,0.00
2022-09-06T00:35:20.711Z,0.00
2022-09-06T00:36:20.686Z,0.00
2022-09-06T00:37:28.253Z,0.00
2022-09-06T00:38:20.683Z,0.00
2022-09-06T00:39:20.650Z,0.00
2022-09-06T00:40:20.638Z,0.00
2022-09-06T00:41:20.626Z,0.00
2022-09-06T00:42:21.539Z,0.00
2022-09-06T00:43:20.609Z,0.00
2022-09-06T00:44:20.596Z,0.00
2022-09-06T00:45:20.580Z,0.00
2022-09-06T00:46:20.686Z,0.00
2022-09-06T00:47:20.581Z,0.00
2022-09-06T00:48:20.623Z,0.00
2022-09-06T00:49:20.537Z,0.00
2022-09-06T00:50:20.533Z,0.00
2022-09-06T00:51:27.277Z,0.00
2022-09-06T00:52:20.514Z,0.00
2022-09-06T00:53:20.511Z,0.00
2022-09-06T00:54:20.482Z,0.00
2022-09-06T00:55:20.472Z,0.00
2022-09-06T00:56:20.472Z,0.00
2022-09-06T00:57:20.463Z,0.00
2022-09-06T00:58:20.490Z,0.00
2022-09-06T00:59:28.243Z,0.00
2022-09-06T01:00:21.247Z,0.00
2022-09-06T01:01:20.566Z,0.00
2022-09-06T01:02:20.592Z,0.00
2022-09-06T01:03:20.380Z,0.00
2022-09-06T01:04:20.373Z,0.00
2022-09-06T01:05:20.358Z,0.00
2022-09-06T01:06:20.639Z,0.00
2022-09-06T01:07:20.334Z,0.00
2022-09-06T01:08:20.355Z,0.00
2022-09-06T01:09:20.318Z,0.00
2022-09-06T01:10:20.304Z,0.00
2022-09-06T01:11:20.290Z,0.00
2022-09-06T01:12:20.302Z,0.00
2022-09-06T01:13:23.416Z,0.00
2022-09-06T01:14:20.267Z,0.00
2022-09-06T01:15:20.249Z,0.00
2022-09-06T01:16:20.236Z,0.00
2022-09-06T01:17:20.261Z,0.00
2022-09-06T01:18:20.239Z,0.00
2022-09-06T01:19:21.463Z,0.00
2022-09-06T01:20:20.197Z,0.00
2022-09-06T01:21:20.186Z,0.00
2022-09-06T01:22:20.174Z,0.00
2022-09-06T01:23:20.157Z,0.00
2022-09-06T01:24:20.189Z,0.00
2022-09-06T01:25:20.275Z,0.00
2022-09-06T01:26:20.178Z,0.00
2022-09-06T01:27:20.137Z,0.00
2022-09-06T01:28:20.150Z,0.00
2022-09-06T01:29:20.127Z,0.00
2022-09-06T01:30:20.109Z,0.00
2022-09-06T01:31:20.128Z,0.00
2022-09-06T01:32:20.061Z,0.00
2022-09-06T01:33:20.048Z,0.00
2022-09-06T01:34:20.086Z,0.00
2022-09-06T01:35:20.023Z,0.00
2022-09-06T01:36:20.062Z,0.00
2022-09-06T01:37:20.005Z,0.00
2022-09-06T01:38:20.097Z,0.00
2022-09-06T01:39:19.983Z,0.00
2022-09-06T01:40:20.010Z,0.00
2022-09-06T01:41:19.965Z,0.00
2022-09-06T01:42:19.979Z,0.00
2022-09-06T01:43:19.938Z,0.00
2022-09-06T01:44:19.962Z,0.00
2022-09-06T01:45:19.935Z,0.00
2022-09-06T01:46:19.980Z,0.00
2022-09-06T01:47:19.907Z,0.00
2022-09-06T01:48:19.885Z,0.00
2022-09-06T01:49:19.894Z,0.00
2022-09-06T01:50:19.862Z,0.00
2022-09-06T01:51:19.846Z,0.00
2022-09-06T01:52:19.862Z,0.00
2022-09-06T01:53:19.826Z,0.00
2022-09-06T01:54:28.990Z,0.00
2022-09-06T01:55:20.712Z,0.00
2022-09-06T01:56:19.796Z,0.00
2022-09-06T01:57:19.778Z,0.00
2022-09-06T01:58:19.769Z,0.00
2022-09-06T01:59:20.006Z,0.00
2022-09-06T02:00:19.789Z,0.00
2022-09-06T02:01:19.764Z,0.00
2022-09-06T02:02:19.759Z,0.00
2022-09-06T02:03:19.717Z,0.00
2022-09-06T02:04:19.704Z,0.00
2022-09-06T02:05:19.733Z,0.00
2022-09-06T02:06:19.685Z,0.00
2022-09-06T02:07:19.678Z,0.00
2022-09-06T02:08:19.665Z,0.00
2022-09-06T02:09:19.657Z,0.00
2022-09-06T02:10:19.663Z,0.00
2022-09-06T02:11:19.624Z,0.00
2022-09-06T02:12:19.616Z,0.00
2022-09-06T02:13:19.605Z,0.00
2022-09-06T02:14:19.808Z,0.00
2022-09-06T02:15:19.605Z,0.00
2022-09-06T02:16:19.647Z,0.00
2022-09-06T02:17:19.557Z,0.00
2022-09-06T02:18:19.571Z,0.00
2022-09-06T02:19:19.543Z,0.00
2022-09-06T02:20:19.533Z,0.00
2022-09-06T02:21:19.547Z,0.00
2022-09-06T02:22:19.504Z,0.00
2022-09-06T02:23:19.494Z,0.00
2022-09-06T02:24:19.484Z,0.00
2022-09-06T02:25:19.674Z,0.00
2022-09-06T02:26:19.490Z,0.00
2022-09-06T02:27:19.455Z,0.00
2022-09-06T02:28:19.454Z,0.00
2022-09-06T02:29:19.452Z,0.00
2022-09-06T02:30:19.475Z,0.00
2022-09-06T02:31:19.767Z,0.00
2022-09-06T02:32:19.428Z,0.00
2022-09-06T02:33:19.386Z,0.00
2022-09-06T02:34:19.382Z,0.00
2022-09-06T02:35:19.360Z,0.00
2022-09-06T02:36:19.376Z,0.00
2022-09-06T02:37:19.341Z,0.00
2022-09-06T02:38:19.331Z,0.00
2022-09-06T02:39:19.315Z,0.00
2022-09-06T02:40:19.308Z,0.00
2022-09-06T02:41:19.342Z,0.00
2022-09-06T02:42:20.289Z,0.00
2022-09-06T02:43:19.275Z,0.00
2022-09-06T02:44:19.262Z,0.00
2022-09-06T02:45:19.272Z,0.00
2022-09-06T02:46:19.317Z,0.00
2022-09-06T02:47:19.227Z,0.00
2022-09-06T02:48:19.306Z,0.00
2022-09-06T02:49:19.210Z,0.00
2022-09-06T02:50:21.047Z,0.00
2022-09-06T02:51:19.213Z,0.00
2022-09-06T02:52:19.175Z,0.00
2022-09-06T02:53:19.204Z,0.00
2022-09-06T02:54:19.148Z,0.00
2022-09-06T02:55:19.136Z,0.00
2022-09-06T02:56:19.134Z,0.00
2022-09-06T02:57:19.117Z,0.00
2022-09-06T02:58:19.129Z,0.00
2022-09-06T02:59:19.771Z,0.00
2022-09-06T03:00:19.085Z,0.00
2022-09-06T03:01:19.103Z,0.00
2022-09-06T03:02:19.144Z,0.00
2022-09-06T03:03:21.891Z,0.00
2022-09-06T03:04:19.038Z,0.00
2022-09-06T03:05:19.033Z,0.00
2022-09-06T03:06:19.018Z,0.00
2022-09-06T03:07:19.027Z,0.00
2022-09-06T03:08:19.024Z,0.00
2022-09-06T03:09:18.979Z,0.00
2022-09-06T03:10:18.976Z,0.00
2022-09-06T03:11:18.970Z,0.00
2022-09-06T03:12:18.954Z,0.00
2022-09-06T03:13:18.960Z,0.00
2022-09-06T03:14:19.780Z,0.00
2022-09-06T03:15:18.914Z,0.00
2022-09-06T03:16:18.964Z,0.00
2022-09-06T03:17:18.900Z,0.00
2022-09-06T03:18:22.324Z,0.00
2022-09-06T03:19:18.872Z,0.00
2022-09-06T03:20:19.154Z,0.00
2022-09-06T03:21:18.843Z,0.00
2022-09-06T03:22:27.827Z,0.00
2022-09-06T03:23:18.825Z,0.00
2022-09-06T03:24:18.849Z,0.00
2022-09-06T03:25:18.799Z,0.00
2022-09-06T03:26:18.836Z,0.00
2022-09-06T03:27:20.940Z,0.00
2022-09-06T03:28:18.770Z,0.00
2022-09-06T03:29:18.757Z,0.00
2022-09-06T03:30:18.747Z,0.00
2022-09-06T03:31:18.771Z,0.00
2022-09-06T03:32:18.760Z,0.00
2022-09-06T03:33:18.710Z,0.00
2022-09-06T03:34:18.695Z,0.00
2022-09-06T03:35:18.879Z,0.00
2022-09-06T03:36:18.693Z,0.00
2022-09-06T03:37:18.663Z,0.00
2022-09-06T03:38:18.680Z,0.00
2022-09-06T03:39:18.644Z,0.00
2022-09-06T03:40:18.641Z,0.00
2022-09-06T03:41:18.650Z,0.00
2022-09-06T03:42:18.612Z,0.00
2022-09-06T03:43:18.599Z,0.00
2022-09-06T03:44:18.589Z,0.00
2022-09-06T03:45:18.574Z,0.00
2022-09-06T03:46:18.716Z,0.00
2022-09-06T03:47:19.730Z,0.00
2022-09-06T03:48:18.548Z,0.00
2022-09-06T03:49:18.545Z,0.00
2022-09-06T03:50:18.554Z,0.00
2022-09-06T03:51:18.503Z,0.00
2022-09-06T03:52:19.318Z,0.00
2022-09-06T03:53:18.483Z,0.00
2022-09-06T03:54:18.474Z,0.00
2022-09-06T03:55:18.488Z,0.00
2022-09-06T03:56:18.498Z,0.00
2022-09-06T03:57:18.445Z,0.00
2022-09-06T03:58:18.436Z,0.00
2022-09-06T03:59:18.444Z,0.00
2022-09-06T04:00:18.430Z,0.00
2022-09-06T04:01:18.499Z,0.00
2022-09-06T04:02:18.431Z,0.00
2022-09-06T04:03:18.627Z,0.00
2022-09-06T04:04:18.384Z,0.00
2022-09-06T04:05:18.347Z,0.00
2022-09-06T04:06:18.338Z,0.00
2022-09-06T04:07:18.490Z,0.00
2022-09-06T04:08:18.319Z,0.00
2022-09-06T04:09:18.341Z,0.00
2022-09-06T04:10:18.293Z,0.00
2022-09-06T04:11:18.309Z,0.00
2022-09-06T04:12:18.271Z,0.00
2022-09-06T04:13:18.261Z,0.00
2022-09-06T04:14:18.270Z,0.00
2022-09-06T04:15:18.233Z,0.00
2022-09-06T04:16:18.283Z,0.00
2022-09-06T04:17:18.213Z,0.00
2022-09-06T04:18:18.210Z,0.00
2022-09-06T04:19:18.230Z,0.00
2022-09-06T04:20:18.529Z,5.62
2022-09-06T04:21:18.168Z,5.62
2022-09-06T04:22:18.156Z,5.62
2022-09-06T04:23:18.142Z,5.62
2022-09-06T04:24:21.262Z,5.62
2022-09-06T04:25:18.214Z,5.62
2022-09-06T04:26:18.309Z,5.62
2022-09-06T04:27:18.106Z,5.62
2022-09-06T04:28:18.083Z,5.62
2022-09-06T04:29:18.095Z,11.25
2022-09-06T04:30:18.071Z,11.25
2022-09-06T04:31:18.281Z,11.25
2022-09-06T04:32:18.808Z,11.25
2022-09-06T04:33:18.036Z,11.25
2022-09-06T04:34:18.181Z,11.25
2022-09-06T04:35:18.297Z,16.88
2022-09-06T04:36:18.806Z,16.88
2022-09-06T04:37:18.173Z,16.88
2022-09-06T04:38:18.019Z,16.88
2022-09-06T04:39:18.004Z,16.88
2022-09-06T04:40:17.984Z,22.50
2022-09-06T04:41:18.175Z,22.50
2022-09-06T04:42:17.935Z,22.50
2022-09-06T04:43:18.083Z,22.50
2022-09-06T04:44:17.983Z,22.50
2022-09-06T04:45:17.959Z,28.12
2022-09-06T04:46:18.041Z,28.12
2022-09-06T04:47:17.907Z,28.12
2022-09-06T04:48:18.804Z,33.75
2022-09-06T04:49:17.887Z,33.75
2022-09-06T04:50:17.878Z,33.75
2022-09-06T04:51:17.838Z,39.38
2022-09-06T04:52:17.900Z,39.38
2022-09-06T04:53:17.823Z,39.38
2022-09-06T04:54:18.322Z,45.00
2022-09-06T04:55:17.791Z,45.00
2022-09-06T04:56:17.778Z,45.00
2022-09-06T04:57:17.762Z,50.62
2022-09-06T04:58:17.756Z,50.62
2022-09-06T04:59:17.767Z,56.25
2022-09-06T05:00:18.302Z,61.88
2022-09-06T05:01:17.825Z,67.50
2022-09-06T05:02:17.788Z,67.50
2022-09-06T05:03:17.704Z,73.12
2022-09-06T05:04:17.701Z,73.12
2022-09-06T05:05:18.335Z,78.75
2022-09-06T05:06:17.662Z,78.75
2022-09-06T05:07:17.650Z,78.75
2022-09-06T05:08:17.643Z,84.38
2022-09-06T05:09:17.649Z,84.38
2022-09-06T05:10:17.611Z,84.38
2022-09-06T05:11:18.308Z,90.00
2022-09-06T05:12:17.589Z,90.00
2022-09-06T05:13:17.581Z,95.62
2022-09-06T05:14:17.600Z,90.00
2022-09-06T05:15:17.560Z,90.00
2022-09-06T05:16:17.655Z,95.62
2022-09-06T05:17:17.954Z,95.62
2022-09-06T05:18:17.535Z,101.25
2022-09-06T05:19:17.545Z,106.88
2022-09-06T05:20:17.502Z,106.88
2022-09-06T05:21:17.490Z,112.50
2022-09-06T05:22:17.485Z,118.12
2022-09-06T05:23:17.472Z,118.12
2022-09-06T05:24:17.472Z,123.75
2022-09-06T05:25:17.501Z,123.75
2022-09-06T05:26:17.507Z,129.38
2022-09-06T05:27:17.421Z,129.38
2022-09-06T05:28:17.842Z,135.00
2022-09-06T05:29:17.399Z,135.00
2022-09-06T05:30:17.468Z,135.00
2022-09-06T05:31:17.389Z,140.62
2022-09-06T05:32:17.429Z,140.62
2022-09-06T05:33:17.364Z,140.62
2022-09-06T05:34:19.664Z,146.25
2022-09-06T05:35:17.389Z,151.88
2022-09-06T05:36:17.328Z,163.12
2022-09-06T05:37:17.312Z,180.00
2022-09-06T05:38:17.305Z,191.25
2022-09-06T05:39:17.318Z,196.88
2022-09-06T05:40:17.298Z,202.50
2022-09-06T05:41:17.303Z,208.12
2022-09-06T05:42:19.371Z,213.75
2022-09-06T05:43:17.247Z,219.38
2022-09-06T05:44:17.263Z,230.62
2022-09-06T05:45:17.267Z,236.25
2022-09-06T05:46:17.256Z,241.88
2022-09-06T05:47:17.210Z,247.50
2022-09-06T05:48:17.777Z,247.50
2022-09-06T05:49:22.818Z,247.50
2022-09-06T05:50:17.171Z,247.50
2022-09-06T05:51:18.822Z,241.88
2022-09-06T05:52:17.159Z,236.25
2022-09-06T05:53:17.136Z,241.88
2022-09-06T05:54:17.161Z,236.25
2022-09-06T05:55:17.114Z,236.25
2022-09-06T05:56:17.154Z,258.75
2022-09-06T05:57:17.147Z,264.38
2022-09-06T05:58:17.102Z,264.38
2022-09-06T05:59:17.070Z,281.25
2022-09-06T06:00:24.386Z,275.62
2022-09-06T06:01:17.161Z,281.25
2022-09-06T06:02:17.877Z,275.62
2022-09-06T06:03:17.025Z,275.62
2022-09-06T06:04:17.034Z,281.25
2022-09-06T06:05:17.038Z,264.38
2022-09-06T06:06:17.001Z,281.25
2022-09-06T06:07:16.986Z,275.62
2022-09-06T06:08:17.313Z,253.12
2022-09-06T06:09:16.983Z,253.12
2022-09-06T06:10:16.955Z,253.12
2022-09-06T06:11:16.939Z,258.75
2022-09-06T06:12:16.927Z,258.75
2022-09-06T06:13:16.926Z,264.38
2022-09-06T06:14:16.907Z,281.25
2022-09-06T06:15:16.936Z,292.50
2022-09-06T06:16:16.994Z,309.38
2022-09-06T06:17:16.872Z,343.12
2022-09-06T06:18:16.860Z,371.25
2022-09-06T06:19:16.849Z,410.62
2022-09-06T06:20:16.862Z,416.25
2022-09-06T06:21:16.830Z,427.50
2022-09-06T06:22:16.812Z,450.00
2022-09-06T06:23:18.289Z,450.00
2022-09-06T06:24:16.808Z,466.88
2022-09-06T06:25:16.821Z,466.88
2022-09-06T06:26:16.772Z,478.12
2022-09-06T06:27:16.760Z,466.88
2022-09-06T06:28:16.749Z,466.88
2022-09-06T06:29:16.740Z,495.00
2022-09-06T06:30:35.231Z,528.75
2022-09-06T06:31:16.864Z,534.38
2022-09-06T06:32:16.702Z,540.00
2022-09-06T06:33:16.692Z,534.38
2022-09-06T06:34:16.679Z,607.50
2022-09-06T06:35:16.679Z,686.25
2022-09-06T06:36:17.375Z,720.00
2022-09-06T06:37:16.651Z,736.88
2022-09-06T06:38:16.636Z,770.62
2022-09-06T06:39:16.629Z,742.50
2022-09-06T06:40:16.697Z,759.38
2022-09-06T06:41:16.624Z,855.00
2022-09-06T06:42:16.596Z,871.88
2022-09-06T06:43:16.580Z,905.62
2022-09-06T06:44:16.596Z,855.00
2022-09-06T06:45:16.564Z,725.62
2022-09-06T06:46:16.615Z,900.00
2022-09-06T06:47:16.557Z,838.12
2022-09-06T06:48:16.528Z,826.88
2022-09-06T06:49:16.515Z,798.75
2022-09-06T06:50:16.539Z,787.50
2022-09-06T06:51:17.297Z,770.62
2022-09-06T06:52:16.485Z,765.00
2022-09-06T06:53:16.489Z,832.50
2022-09-06T06:54:16.458Z,793.12
2022-09-06T06:55:16.882Z,781.88
2022-09-06T06:56:16.505Z,781.88
2022-09-06T06:57:16.441Z,843.75
2022-09-06T06:58:16.416Z,866.25
2022-09-06T07:00:36.492Z,736.88
2022-09-06T07:01:36.677Z,461.25
2022-09-06T07:02:36.361Z,438.75
2022-09-06T07:03:36.373Z,433.12
2022-09-06T07:04:36.562Z,444.38
2022-09-06T07:07:39.561Z,1057.50
2022-09-06T07:08:36.392Z,1091.25
2022-09-06T07:10:37.342Z,1012.50
2022-09-06T07:11:36.268Z,1018.12
2022-09-06T07:12:36.273Z,1085.62
2022-09-06T07:13:36.244Z,1113.75
2022-09-06T07:14:36.265Z,1141.88
2022-09-06T07:15:36.221Z,1158.75
2022-09-06T07:16:36.248Z,1209.38
2022-09-06T07:17:36.225Z,1136.25
2022-09-06T07:18:36.186Z,1203.75
2022-09-06T07:21:37.508Z,1327.50
2022-09-06T07:22:36.146Z,1327.50
2022-09-06T07:24:37.157Z,1321.88
2022-09-06T07:25:36.138Z,1333.12
2022-09-06T07:26:36.260Z,1344.38
2022-09-06T07:27:51.537Z,1305.00
2022-09-06T07:28:37.088Z,1271.25
2022-09-06T07:29:36.093Z,1203.75
2022-09-06T07:30:36.071Z,1203.75
2022-09-06T07:32:37.037Z,1248.75
2022-09-06T07:33:36.020Z,1147.50
2022-09-06T07:34:36.010Z,1136.25
2022-09-06T07:35:36.020Z,1096.88
2022-09-06T07:36:36.118Z,1203.75
2022-09-06T07:37:35.975Z,1141.88
2022-09-06T07:38:35.971Z,1051.88
2022-09-06T07:39:36.081Z,956.25
2022-09-06T07:40:36.075Z,939.38
2022-09-06T07:41:35.934Z,1237.50
2022-09-06T07:42:36.821Z,1383.75
2022-09-06T07:43:35.907Z,1288.12
2022-09-06T07:44:35.905Z,1282.50
2022-09-06T07:45:35.911Z,1299.38
2022-09-06T07:46:35.918Z,1361.25
2022-09-06T07:48:36.857Z,1327.50
2022-09-06T07:49:35.851Z,1321.88
2022-09-06T07:50:53.540Z,1372.50
2022-09-06T07:51:36.876Z,1490.62
2022-09-06T07:53:37.323Z,1355.62
2022-09-06T07:54:35.792Z,1411.88
2022-09-06T07:55:35.796Z,1333.12
2022-09-06T07:56:35.769Z,1203.75
2022-09-06T07:57:35.992Z,1215.00
2022-09-06T07:58:35.749Z,1170.00
2022-09-06T07:59:38.095Z,1496.25
2022-09-06T08:00:35.781Z,1625.62
2022-09-06T08:01:35.734Z,1518.75
2022-09-06T08:02:35.764Z,1445.62
2022-09-06T08:03:35.701Z,1344.38
2022-09-06T08:04:35.682Z,1293.75
2022-09-06T08:09:36.628Z,1108.12
2022-09-06T08:10:35.847Z,1192.50
2022-09-06T08:11:35.606Z,1119.38
2022-09-06T08:12:35.599Z,961.88
2022-09-06T08:13:35.582Z,1006.88
2022-09-06T08:14:35.610Z,1237.50
2022-09-06T08:15:35.606Z,1147.50
2022-09-06T08:16:35.624Z,905.62
2022-09-06T08:17:35.554Z,984.38
2022-09-06T08:18:35.556Z,1063.12
2022-09-06T08:19:35.518Z,990.00
2022-09-06T08:20:35.535Z,871.88
2022-09-06T08:21:35.508Z,860.62
2022-09-06T08:22:35.486Z,855.00
2022-09-06T08:23:35.476Z,939.38
2022-09-06T08:24:35.574Z,1147.50
2022-09-06T08:25:36.207Z,1091.25
2022-09-06T08:26:35.439Z,922.50
2022-09-06T08:27:35.454Z,843.75
2022-09-06T08:28:35.437Z,765.00
2022-09-06T08:29:35.652Z,720.00
2022-09-06T08:30:35.408Z,675.00
2022-09-06T08:31:35.523Z,596.25
2022-09-06T08:32:35.371Z,540.00
2022-09-06T08:33:35.364Z,523.12
2022-09-06T08:34:35.372Z,579.38
2022-09-06T08:35:35.345Z,675.00
2022-09-06T08:36:35.330Z,720.00
2022-09-06T08:37:35.320Z,1046.25
2022-09-06T08:38:35.432Z,765.00
2022-09-06T08:39:35.648Z,810.00
2022-09-06T08:40:35.307Z,1096.88
2022-09-06T08:41:35.317Z,1383.75
2022-09-06T08:42:35.508Z,770.62
2022-09-06T08:43:35.278Z,967.50
2022-09-06T08:45:36.236Z,939.38
2022-09-06T08:46:35.250Z,905.62
2022-09-06T08:47:35.233Z,973.12
2022-09-06T08:48:35.210Z,1186.88
2022-09-06T08:49:35.204Z,1614.38
2022-09-06T08:50:35.181Z,1338.75
2022-09-06T08:51:38.370Z,1231.88
2022-09-06T08:52:35.174Z,1310.62
2022-09-06T08:53:35.145Z,1321.88
2022-09-06T08:54:35.145Z,900.00
2022-09-06T08:55:35.124Z,950.62
2022-09-06T08:56:35.121Z,1518.75
2022-09-06T08:57:39.997Z,1400.62
2022-09-06T08:58:35.089Z,1158.75
2022-09-06T08:59:35.361Z,1147.50
2022-09-06T09:00:35.124Z,961.88
2022-09-06T09:01:35.100Z,1113.75
2022-09-06T09:02:35.061Z,1085.62
2022-09-06T09:03:35.287Z,1119.38
2022-09-06T09:04:35.027Z,1147.50
2022-09-06T09:05:35.030Z,1327.50
2022-09-06T09:06:35.013Z,1226.25
2022-09-06T09:07:35.019Z,1040.62
2022-09-06T09:08:35.030Z,1389.38
2022-09-06T09:09:34.967Z,950.62
2022-09-06T09:10:34.958Z,877.50
2022-09-06T09:11:34.949Z,933.75
2022-09-06T09:12:34.974Z,1305.00
2022-09-06T09:13:34.932Z,1361.25
2022-09-06T09:14:34.905Z,1130.62
2022-09-06T09:15:39.596Z,1175.62
2022-09-06T09:16:35.966Z,1248.75
2022-09-06T09:17:34.880Z,1282.50
2022-09-06T09:18:34.889Z,1316.25
2022-09-06T09:19:34.861Z,1175.62
2022-09-06T09:20:34.851Z,1085.62
2022-09-06T09:21:34.875Z,1085.62
2022-09-06T09:22:34.844Z,1108.12
2022-09-06T09:23:34.816Z,1147.50
2022-09-06T09:24:34.806Z,1963.12
2022-09-06T09:25:34.800Z,1518.75
2022-09-06T09:26:34.777Z,1209.38
2022-09-06T09:27:34.794Z,1496.25
2022-09-06T09:28:34.758Z,1535.62
2022-09-06T09:29:36.478Z,1282.50
2022-09-06T09:30:50.273Z,1203.75
2022-09-06T09:31:35.800Z,1057.50
2022-09-06T09:32:34.732Z,922.50
2022-09-06T09:33:34.725Z,984.38
2022-09-06T09:34:34.700Z,1029.38
2022-09-06T09:35:34.681Z,916.88
2022-09-06T09:36:34.696Z,900.00
2022-09-06T09:37:52.965Z,888.75
2022-09-06T09:38:35.654Z,877.50
2022-09-06T09:39:34.801Z,821.25
2022-09-06T09:40:34.626Z,781.88
2022-09-06T09:41:34.651Z,770.62
2022-09-06T09:42:34.604Z,776.25
2022-09-06T09:43:34.607Z,804.38
2022-09-06T09:44:34.581Z,815.62
2022-09-06T09:45:34.597Z,810.00
2022-09-06T09:46:34.655Z,810.00
2022-09-06T09:47:34.564Z,883.12
2022-09-06T09:48:34.565Z,793.12
2022-09-06T09:49:34.529Z,793.12
2022-09-06T09:50:34.569Z,967.50
2022-09-06T09:51:34.507Z,939.38
2022-09-06T09:52:34.497Z,736.88
2022-09-06T09:53:34.488Z,691.88
2022-09-06T09:54:37.124Z,675.00
2022-09-06T09:55:34.468Z,663.75
2022-09-06T09:56:34.454Z,652.50
2022-09-06T09:57:34.450Z,652.50
2022-09-06T09:58:34.428Z,652.50
2022-09-06T09:59:34.418Z,658.12
2022-09-06T10:00:34.495Z,708.75
2022-09-06T10:01:34.398Z,776.25
2022-09-06T10:02:34.415Z,787.50
2022-09-06T10:03:34.598Z,1215.00
2022-09-06T10:05:35.350Z,905.62
2022-09-06T10:07:35.358Z,1198.12
2022-09-06T10:08:34.344Z,1074.38
2022-09-06T10:09:34.377Z,1344.38
2022-09-06T10:10:34.298Z,1175.62
2022-09-06T10:11:34.318Z,900.00
2022-09-06T10:12:34.271Z,793.12
2022-09-06T10:13:34.372Z,832.50
2022-09-06T10:14:34.256Z,787.50
2022-09-06T10:15:34.301Z,753.75
2022-09-06T10:16:34.249Z,793.12
2022-09-06T10:17:34.240Z,821.25
2022-09-06T10:18:34.252Z,759.38
2022-09-06T10:19:34.199Z,736.88
2022-09-06T10:20:34.211Z,669.38
2022-09-06T10:21:34.196Z,680.62
2022-09-06T10:22:34.163Z,725.62
2022-09-06T10:24:35.144Z,742.50
2022-09-06T10:25:34.131Z,585.00
2022-09-06T10:26:34.160Z,545.62
2022-09-06T10:27:34.140Z,534.38
2022-09-06T10:28:34.127Z,506.25
2022-09-06T10:29:34.143Z,489.38
2022-09-06T10:30:34.326Z,478.12
2022-09-06T10:31:34.117Z,472.50
2022-09-06T10:32:34.060Z,466.88
2022-09-06T10:33:34.077Z,455.62
2022-09-06T10:34:34.063Z,450.00
2022-09-06T10:35:34.019Z,444.38
2022-09-06T10:36:34.024Z,438.75
2022-09-06T10:37:34.002Z,433.12
2022-09-06T10:38:33.988Z,433.12
2022-09-06T10:39:34.070Z,427.50
2022-09-06T10:40:33.963Z,427.50
2022-09-06T10:41:33.951Z,427.50
2022-09-06T10:42:33.946Z,427.50
2022-09-06T10:43:33.936Z,427.50
2022-09-06T10:44:41.402Z,433.12
2022-09-06T10:45:34.042Z,438.75
2022-09-06T10:46:33.939Z,444.38
2022-09-06T10:47:33.893Z,455.62
2022-09-06T10:48:33.901Z,466.88
2022-09-06T10:49:33.970Z,472.50
2022-09-06T10:50:33.856Z,489.38
2022-09-06T10:51:33.878Z,495.00
2022-09-06T10:52:33.836Z,500.62
2022-09-06T10:53:33.945Z,500.62
2022-09-06T10:54:33.830Z,500.62
2022-09-06T10:55:33.868Z,506.25
2022-09-06T10:56:33.810Z,506.25
2022-09-06T11:00:33.798Z,495.00
2022-09-06T11:01:33.888Z,500.62
2022-09-06T11:02:34.019Z,500.62
2022-09-06T11:06:33.684Z,534.38
2022-09-06T11:07:33.773Z,540.00
2022-09-06T11:08:51.110Z,551.25
2022-09-06T11:09:34.647Z,562.50
2022-09-06T11:10:33.629Z,585.00
2022-09-06T11:11:33.626Z,607.50
2022-09-06T11:12:33.609Z,624.38
2022-09-06T11:13:33.640Z,641.25
2022-09-06T11:14:33.588Z,680.62
2022-09-06T11:15:33.594Z,731.25
2022-09-06T11:16:33.570Z,765.00
2022-09-06T11:17:33.821Z,815.62
2022-09-06T11:18:33.550Z,855.00
2022-09-06T11:19:33.540Z,1035.00
2022-09-06T11:20:33.524Z,1209.38
2022-09-06T11:21:33.522Z,1417.50
2022-09-06T11:22:33.533Z,1428.75
2022-09-06T11:23:33.578Z,1153.12
2022-09-06T11:24:33.485Z,1130.62
2022-09-06T11:25:33.524Z,911.25
2022-09-06T11:26:33.462Z,849.38
2022-09-06T11:27:33.465Z,821.25
2022-09-06T11:28:33.437Z,742.50
2022-09-06T11:29:33.428Z,675.00
2022-09-06T11:30:36.738Z,624.38
2022-09-06T11:32:34.397Z,551.25
2022-09-06T11:33:33.382Z,523.12
2022-09-06T11:34:33.369Z,495.00
2022-09-06T11:35:36.802Z,472.50
2022-09-06T11:36:33.353Z,455.62
2022-09-06T11:37:33.340Z,438.75
2022-09-06T11:38:33.676Z,427.50
2022-09-06T11:40:34.331Z,405.00
2022-09-06T11:41:33.323Z,393.75
2022-09-06T11:42:33.285Z,388.12
2022-09-06T11:43:33.282Z,388.12
2022-09-06T11:44:33.257Z,388.12
2022-09-06T11:45:33.304Z,382.50
2022-09-06T11:46:33.348Z,382.50
2022-09-06T11:47:33.232Z,376.88
2022-09-06T11:48:33.237Z,376.88
2022-09-06T11:49:33.207Z,371.25
2022-09-06T11:50:33.218Z,365.62
2022-09-06T11:51:35.048Z,371.25
2022-09-06T11:52:33.170Z,382.50
2022-09-06T11:53:33.170Z,376.88
2022-09-06T11:54:33.182Z,376.88
2022-09-06T11:55:33.251Z,382.50
2022-09-06T11:56:33.157Z,382.50
2022-09-06T11:57:33.118Z,382.50
2022-09-06T11:58:33.111Z,382.50
2022-09-06T11:59:33.099Z,382.50
2022-09-06T12:00:33.105Z,382.50
2022-09-06T12:01:33.094Z,382.50
2022-09-06T12:02:33.199Z,382.50
2022-09-06T12:04:34.061Z,388.12
2022-09-06T12:05:33.044Z,376.88
2022-09-06T12:06:33.025Z,371.25
2022-09-06T12:07:33.023Z,365.62
2022-09-06T12:08:32.996Z,360.00
2022-09-06T12:09:32.987Z,360.00
2022-09-06T12:10:33.176Z,354.38
2022-09-06T12:11:32.966Z,354.38
2022-09-06T12:12:32.954Z,354.38
2022-09-06T12:13:32.945Z,360.00
2022-09-06T12:14:33.198Z,365.62
2022-09-06T12:15:32.990Z,371.25
2022-09-06T12:16:32.907Z,371.25
2022-09-06T12:17:32.897Z,371.25
2022-09-06T12:18:32.909Z,376.88
2022-09-06T12:19:32.875Z,382.50
2022-09-06T12:20:32.881Z,388.12
2022-09-06T12:21:32.875Z,393.75
2022-09-06T12:22:32.865Z,393.75
2022-09-06T12:23:32.830Z,399.38
2022-09-06T12:24:32.865Z,405.00
2022-09-06T12:25:32.814Z,410.62
2022-09-06T12:26:32.819Z,416.25
2022-09-06T12:27:32.791Z,421.88
2022-09-06T12:28:32.772Z,427.50
2022-09-06T12:29:33.018Z,427.50
2022-09-06T12:30:32.751Z,427.50
2022-09-06T12:31:33.377Z,433.12
2022-09-06T12:32:36.813Z,438.75
2022-09-06T12:33:32.722Z,444.38
2022-09-06T12:34:32.709Z,450.00
2022-09-06T12:36:33.686Z,455.62
2022-09-06T12:37:32.679Z,455.62
2022-09-06T12:38:32.665Z,455.62
2022-09-06T12:39:32.755Z,455.62
2022-09-06T12:40:32.661Z,455.62
2022-09-06T12:41:32.653Z,472.50
2022-09-06T12:42:33.133Z,483.75
2022-09-06T12:43:32.606Z,495.00
2022-09-06T12:44:32.641Z,511.88
2022-09-06T12:45:32.584Z,517.50
2022-09-06T12:46:32.812Z,523.12
2022-09-06T12:47:32.568Z,528.75
2022-09-06T12:48:32.587Z,534.38
2022-09-06T12:49:32.541Z,540.00
2022-09-06T12:50:32.539Z,545.62
2022-09-06T12:51:32.521Z,556.88
2022-09-06T12:52:32.522Z,573.75
2022-09-06T12:53:32.498Z,585.00
2022-09-06T12:54:32.506Z,573.75
2022-09-06T12:55:32.485Z,573.75
2022-09-06T12:56:32.467Z,568.12
2022-09-06T12:57:32.491Z,568.12
2022-09-06T12:58:32.457Z,568.12
2022-09-06T12:59:32.810Z,573.75
2022-09-06T13:00:32.428Z,579.38
2022-09-06T13:01:32.681Z,585.00
2022-09-06T13:02:32.635Z,585.00
2022-09-06T13:03:32.544Z,601.88
2022-09-06T13:04:32.396Z,630.00
2022-09-06T13:05:32.372Z,658.12
2022-09-06T13:06:32.361Z,663.75
2022-09-06T13:07:32.369Z,675.00
2022-09-06T13:08:35.659Z,663.75
2022-09-06T13:09:32.322Z,663.75
2022-09-06T13:10:32.318Z,675.00
2022-09-06T13:11:32.304Z,652.50